This is the latest recevied weather packets stored in our database for station/object HS6TUX-4. If no packets are shown the sender has not sent any weather packets the latest 10 day(s).
| Time | Temp. | Humidity | Pressure | Rain* | Wind** | Luminosity | Snow |
|---|---|---|---|---|---|---|---|
| 1777597103 | 36.11° C | 99% | 735 hPa | - | - | 79 W/m² | - |
| 1777596175 | 34.44° C | 99% | 733 hPa | - | - | 77 W/m² | - |
| 1777595246 | 32.78° C | 99% | 731 hPa | - | - | 55 W/m² | - |
| 1777594318 | 33.89° C | 99% | 732 hPa | - | - | 42 W/m² | - |
| 1777593389 | 28.89° C | 99% | 726 hPa | - | - | 31 W/m² | - |
| 1777592460 | 25.56° C | 99% | 723 hPa | - | - | 13 W/m² | - |
| 1777591532 | 25° C | 99% | 722 hPa | - | - | 9 W/m² | - |
| 1777590604 | 24.44° C | 99% | 721 hPa | - | - | 3 W/m² | - |
| 1777589676 | 24.44° C | 99% | 721 hPa | - | - | 0 W/m² | - |
| 1777588747 | 24.44° C | 99% | 721 hPa | - | - | 0 W/m² | - |
| 1777587819 | 23.89° C | 99% | 721 hPa | - | - | 0 W/m² | - |
| 1777586891 | 23.89° C | 99% | 721 hPa | - | - | 0 W/m² | - |
| 1777585963 | 23.89° C | 99% | 721 hPa | - | - | 0 W/m² | - |
| 1777585035 | 23.89° C | 99% | 721 hPa | - | - | 0 W/m² | - |
| 1777584106 | 24.44° C | 99% | 721 hPa | - | - | 0 W/m² | - |
| 1777583178 | 24.44° C | 99% | 721 hPa | - | - | 0 W/m² | - |
| 1777582250 | 24.44° C | 99% | 721 hPa | - | - | 0 W/m² | - |
| 1777581322 | 24.44° C | 99% | 721 hPa | - | - | 0 W/m² | - |
| 1777580394 | 25° C | 99% | 722 hPa | - | - | 0 W/m² | - |
| 1777579466 | 25° C | 99% | 722 hPa | - | - | 0 W/m² | - |
| 1777578537 | 25° C | 99% | 722 hPa | - | - | 0 W/m² | - |
| 1777577609 | 25.56° C | 99% | 722 hPa | - | - | 0 W/m² | - |
| 1777576680 | 25.56° C | 99% | 722 hPa | - | - | 0 W/m² | - |
| 1777575752 | 25.56° C | 99% | 722 hPa | - | - | 0 W/m² | - |
| 1777574824 | 26.11° C | 99% | 723 hPa | - | - | 0 W/m² | - |
* Rain since midnight (hover to see other rain measurements)
** Current wind speed in m/s (hover to see current wind gust speed)